createdAt,value
2022-12-24T00:00:24.707Z,7.50
2022-12-24T00:02:52.558Z,7.10
2022-12-24T00:05:20.380Z,8.30
2022-12-24T00:07:48.140Z,8.73
2022-12-24T00:10:15.845Z,9.07
2022-12-24T00:12:43.593Z,9.13
2022-12-24T00:15:13.108Z,7.90
2022-12-24T00:17:40.825Z,8.13
2022-12-24T00:20:09.988Z,8.20
2022-12-24T00:22:37.709Z,7.50
2022-12-24T00:25:06.525Z,7.50
2022-12-24T00:27:34.263Z,7.77
2022-12-24T00:30:01.991Z,8.07
2022-12-24T00:32:31.371Z,7.60
2022-12-24T00:34:59.130Z,7.33
2022-12-24T00:37:26.900Z,7.87
2022-12-24T00:39:54.637Z,6.43
2022-12-24T00:42:22.348Z,6.93
2022-12-24T00:44:50.110Z,7.27
2022-12-24T00:47:17.839Z,6.93
2022-12-24T00:49:47.046Z,7.40
2022-12-24T00:52:14.818Z,7.03
2022-12-24T00:54:42.542Z,7.07
2022-12-24T00:57:10.304Z,6.83
2022-12-24T00:59:38.003Z,7.07
2022-12-24T01:02:05.907Z,6.70
2022-12-24T01:04:50.991Z,7.33
2022-12-24T01:07:20.211Z,7.43
2022-12-24T01:09:47.938Z,6.70
2022-12-24T01:12:15.688Z,7.60
2022-12-24T01:14:43.390Z,7.73
2022-12-24T01:17:11.168Z,8.03
2022-12-24T01:19:38.899Z,7.20
2022-12-24T01:22:06.652Z,7.27
2022-12-24T01:24:36.146Z,6.83
2022-12-24T01:27:03.886Z,6.80
2022-12-24T01:29:31.615Z,6.73
2022-12-24T01:31:59.411Z,8.13
2022-12-24T01:34:27.165Z,7.07
2022-12-24T01:36:54.891Z,8.40
2022-12-24T01:39:22.637Z,6.90
2022-12-24T01:42:09.373Z,7.27
2022-12-24T01:44:41.882Z,7.80
2022-12-24T01:47:15.282Z,7.23
2022-12-24T01:49:46.456Z,7.00
2022-12-24T01:52:18.040Z,6.70
2022-12-24T01:54:51.636Z,7.00
2022-12-24T01:57:25.514Z,7.93
2022-12-24T01:59:57.905Z,6.70
2022-12-24T02:02:27.215Z,7.27
2022-12-24T02:05:00.036Z,7.23
2022-12-24T02:07:28.005Z,7.60
2022-12-24T02:09:58.744Z,7.10
2022-12-24T02:12:29.847Z,7.37
2022-12-24T02:14:58.021Z,8.37
2022-12-24T02:17:32.929Z,8.87
2022-12-24T02:20:31.862Z,9.17
2022-12-24T02:23:13.430Z,7.83
2022-12-24T02:25:59.332Z,7.83
2022-12-24T02:28:41.589Z,8.07
2022-12-24T02:31:17.166Z,7.63
2022-12-24T02:33:50.629Z,7.43
2022-12-24T02:36:24.505Z,6.90
2022-12-24T02:38:58.911Z,7.70
2022-12-24T02:41:51.080Z,8.40
2022-12-24T02:44:21.260Z,7.60
2022-12-24T02:46:51.967Z,7.20
2022-12-24T02:49:19.903Z,7.53
2022-12-24T02:51:47.649Z,7.63
2022-12-24T02:54:16.189Z,7.87
2022-12-24T02:57:00.948Z,6.97
2022-12-24T02:59:49.048Z,7.33
2022-12-24T03:02:27.920Z,7.87
2022-12-24T03:05:04.161Z,7.73
2022-12-24T03:07:39.305Z,7.70
2022-12-24T03:10:21.642Z,6.97
2022-12-24T03:12:52.609Z,7.47
2022-12-24T03:15:23.115Z,7.57
2022-12-24T03:17:55.340Z,7.80
2022-12-24T03:20:27.757Z,8.13
2022-12-24T03:22:55.698Z,7.97
2022-12-24T03:25:26.674Z,7.83
2022-12-24T03:27:56.971Z,7.60
2022-12-24T03:30:25.263Z,7.03
2022-12-24T03:32:54.531Z,7.97
2022-12-24T03:35:22.478Z,8.07
2022-12-24T03:37:50.193Z,6.40
2022-12-24T03:40:18.060Z,5.17
2022-12-24T03:42:45.797Z,6.40
2022-12-24T03:45:13.530Z,6.13
2022-12-24T03:47:41.320Z,5.37
2022-12-24T03:50:11.004Z,5.50
2022-12-24T03:52:38.773Z,5.67
2022-12-24T03:55:07.084Z,5.50
2022-12-24T03:57:34.879Z,4.80
2022-12-24T04:00:03.609Z,4.90
2022-12-24T04:02:32.153Z,5.13
2022-12-24T04:04:59.973Z,4.70
2022-12-24T04:07:29.047Z,5.37
2022-12-24T04:09:56.779Z,5.23
2022-12-24T04:12:24.562Z,5.27
2022-12-24T04:14:52.324Z,5.67
2022-12-24T04:17:20.057Z,5.63
2022-12-24T04:19:47.774Z,6.47
2022-12-24T04:22:15.503Z,7.13
2022-12-24T04:24:44.693Z,7.20
2022-12-24T04:27:14.382Z,6.53
2022-12-24T04:29:42.102Z,6.33
2022-12-24T04:32:11.168Z,6.43
2022-12-24T04:34:38.975Z,5.20
2022-12-24T04:37:07.105Z,6.63
2022-12-24T04:39:34.862Z,4.90
2022-12-24T04:42:03.987Z,5.77
2022-12-24T04:44:31.693Z,6.07
2022-12-24T04:46:59.443Z,5.97
2022-12-24T04:49:27.310Z,6.13
2022-12-24T04:51:55.041Z,5.20
2022-12-24T04:54:22.771Z,5.23
2022-12-24T04:56:50.517Z,5.17
2022-12-24T04:59:19.600Z,5.17
2022-12-24T05:01:47.563Z,5.37
2022-12-24T05:04:15.475Z,6.00
2022-12-24T05:06:43.224Z,5.73
2022-12-24T05:09:10.967Z,5.70
2022-12-24T05:11:38.705Z,6.23
2022-12-24T05:14:06.451Z,6.17
2022-12-24T05:16:35.641Z,5.93
2022-12-24T05:19:03.423Z,5.40
2022-12-24T05:21:31.183Z,7.00
2022-12-24T05:24:16.471Z,6.00
2022-12-24T05:26:47.492Z,6.00
2022-12-24T05:29:15.318Z,5.27
2022-12-24T05:31:45.461Z,5.40
2022-12-24T05:34:15.002Z,5.43
2022-12-24T05:36:43.190Z,5.70
2022-12-24T05:39:15.955Z,5.10
2022-12-24T05:41:44.324Z,4.93
2022-12-24T05:44:12.187Z,5.37
2022-12-24T05:46:40.158Z,5.63
2022-12-24T05:49:09.677Z,5.67
2022-12-24T05:51:37.618Z,5.37
2022-12-24T05:54:05.832Z,6.03
2022-12-24T05:56:34.063Z,5.87
2022-12-24T05:59:01.809Z,5.83
2022-12-24T06:01:29.630Z,5.73
2022-12-24T06:03:58.435Z,5.60
2022-12-24T06:06:29.162Z,5.30
2022-12-24T06:08:57.317Z,5.70
2022-12-24T06:11:27.437Z,5.20
2022-12-24T06:13:55.332Z,5.20
2022-12-24T06:16:25.517Z,5.53
2022-12-24T06:18:53.476Z,5.23
2022-12-24T06:21:21.721Z,5.00
2022-12-24T06:23:50.908Z,4.87
2022-12-24T06:26:20.479Z,5.17
2022-12-24T06:28:50.822Z,5.17
2022-12-24T06:31:21.457Z,4.60
2022-12-24T06:33:49.727Z,4.43
2022-12-24T06:36:19.310Z,4.37
2022-12-24T06:38:47.768Z,4.47
2022-12-24T06:41:17.981Z,5.10
2022-12-24T06:43:46.875Z,5.33
2022-12-24T06:46:15.320Z,5.93
2022-12-24T06:48:45.254Z,4.77
2022-12-24T06:51:13.062Z,5.20
2022-12-24T06:53:41.184Z,4.73
2022-12-24T06:56:10.733Z,4.53
2022-12-24T06:58:41.115Z,5.07
2022-12-24T07:01:10.909Z,4.57
2022-12-24T07:03:38.879Z,5.80
2022-12-24T07:06:07.735Z,11.47
2022-12-24T07:08:36.413Z,6.57
2022-12-24T07:11:04.871Z,4.80
2022-12-24T07:13:34.271Z,4.97
2022-12-24T07:16:05.361Z,4.47
2022-12-24T07:18:33.792Z,5.00
2022-12-24T07:21:01.920Z,5.37
2022-12-24T07:23:31.219Z,4.20
2022-12-24T07:26:01.125Z,4.93
2022-12-24T07:28:28.918Z,4.53
2022-12-24T07:30:56.825Z,4.33
2022-12-24T07:33:27.093Z,4.83
2022-12-24T07:36:00.483Z,5.00
2022-12-24T07:38:30.219Z,4.27
2022-12-24T07:40:58.566Z,4.63
2022-12-24T07:43:26.541Z,4.23
2022-12-24T07:45:56.771Z,4.90
2022-12-24T07:48:26.362Z,4.87
2022-12-24T07:50:54.140Z,4.67
2022-12-24T07:53:22.574Z,5.13
2022-12-24T07:55:50.523Z,5.13
2022-12-24T07:58:18.631Z,5.93
2022-12-24T08:00:46.879Z,5.20
2022-12-24T08:03:17.859Z,5.57
2022-12-24T08:05:47.851Z,5.80
2022-12-24T08:08:15.762Z,12.93
2022-12-24T08:10:45.346Z,4.60
2022-12-24T08:13:13.801Z,7.07
2022-12-24T08:15:41.626Z,6.10
2022-12-24T08:18:09.735Z,4.87
2022-12-24T08:20:39.444Z,5.03
2022-12-24T08:23:09.123Z,5.80
2022-12-24T08:25:37.721Z,8.43
2022-12-24T08:28:06.234Z,5.57
2022-12-24T08:30:34.184Z,4.43
2022-12-24T08:33:02.104Z,16.13
2022-12-24T08:35:30.101Z,8.97
2022-12-24T08:37:58.155Z,8.63
2022-12-24T08:40:27.962Z,4.83
2022-12-24T08:42:55.896Z,4.17
2022-12-24T08:45:23.760Z,4.70
2022-12-24T08:47:51.508Z,4.67
2022-12-24T08:50:19.359Z,4.50
2022-12-24T08:52:47.112Z,5.00
2022-12-24T08:55:14.866Z,4.90
2022-12-24T08:57:43.982Z,4.60
2022-12-24T09:00:14.008Z,4.60
2022-12-24T09:02:41.840Z,4.60
2022-12-24T09:05:10.062Z,3.83
2022-12-24T09:07:38.130Z,4.03
2022-12-24T09:10:07.634Z,3.73
2022-12-24T09:12:35.334Z,4.30
2022-12-24T09:15:08.132Z,4.23
2022-12-24T09:17:36.379Z,6.37
2022-12-24T09:20:04.464Z,4.90
2022-12-24T09:22:32.180Z,4.90
2022-12-24T09:24:59.903Z,4.50
2022-12-24T09:27:27.620Z,4.00
2022-12-24T09:29:55.357Z,5.10
2022-12-24T09:32:24.952Z,3.43
2022-12-24T09:34:52.719Z,4.40
2022-12-24T09:37:20.485Z,4.30
2022-12-24T09:39:48.618Z,4.40
2022-12-24T09:42:28.177Z,5.17
2022-12-24T09:45:17.885Z,4.20
2022-12-24T09:47:50.646Z,3.73
2022-12-24T09:50:36.781Z,3.80
2022-12-24T09:53:14.002Z,3.57
2022-12-24T09:55:45.376Z,3.80
2022-12-24T09:58:21.347Z,3.73
2022-12-24T10:00:50.164Z,3.70
2022-12-24T10:03:19.840Z,3.60
2022-12-24T10:05:57.686Z,4.03
2022-12-24T10:08:32.453Z,4.07
2022-12-24T10:11:08.260Z,3.93
2022-12-24T10:13:48.958Z,4.40
2022-12-24T10:16:24.134Z,4.60
2022-12-24T10:19:01.321Z,4.13
2022-12-24T10:21:40.753Z,4.00
2022-12-24T10:24:15.621Z,4.33
2022-12-24T10:26:53.728Z,4.07
2022-12-24T10:29:26.724Z,4.57
2022-12-24T10:31:57.838Z,4.23
2022-12-24T10:34:31.807Z,4.40
2022-12-24T10:37:00.431Z,4.40
2022-12-24T10:39:28.331Z,3.90
2022-12-24T10:41:58.666Z,3.93
2022-12-24T10:44:29.698Z,4.50
2022-12-24T10:46:57.487Z,4.80
2022-12-24T10:49:34.833Z,4.67
2022-12-24T10:52:06.664Z,4.00
2022-12-24T10:54:39.436Z,4.23
2022-12-24T10:57:24.304Z,4.30
2022-12-24T10:59:55.111Z,4.03
2022-12-24T11:02:32.280Z,4.50
2022-12-24T11:05:03.217Z,4.30
2022-12-24T11:07:32.517Z,5.40
2022-12-24T11:10:01.982Z,5.00
2022-12-24T11:12:32.367Z,4.33
2022-12-24T11:15:03.407Z,5.20
2022-12-24T11:17:32.034Z,4.57
2022-12-24T11:20:03.341Z,4.43
2022-12-24T11:22:33.561Z,3.70
2022-12-24T11:25:05.351Z,3.80
2022-12-24T11:27:40.440Z,3.80
2022-12-24T11:30:21.624Z,4.10
2022-12-24T11:32:51.020Z,4.07
2022-12-24T11:35:23.442Z,4.50
2022-12-24T11:38:10.996Z,4.33
2022-12-24T11:40:42.011Z,4.03
2022-12-24T11:43:16.375Z,4.10
2022-12-24T11:45:51.264Z,4.00
2022-12-24T11:48:31.523Z,4.40
2022-12-24T11:51:02.445Z,4.93
2022-12-24T11:53:37.288Z,4.60
2022-12-24T11:56:14.229Z,3.57
2022-12-24T11:58:47.341Z,4.63
2022-12-24T12:01:21.560Z,4.27
2022-12-24T12:03:51.394Z,3.80
2022-12-24T12:06:28.698Z,3.60
2022-12-24T12:09:00.920Z,4.83
2022-12-24T12:11:29.880Z,8.30
2022-12-24T12:14:01.221Z,5.80
2022-12-24T12:16:53.525Z,4.90
2022-12-24T12:19:26.561Z,4.37
2022-12-24T12:21:56.150Z,5.03
2022-12-24T12:24:32.433Z,4.67
2022-12-24T12:27:10.147Z,5.43
2022-12-24T12:29:43.757Z,5.13
2022-12-24T12:32:23.781Z,4.90
2022-12-24T12:35:02.700Z,5.17
2022-12-24T12:37:36.495Z,4.60
2022-12-24T12:40:05.444Z,4.93
2022-12-24T12:42:36.010Z,4.47
2022-12-24T12:45:34.025Z,4.37
2022-12-24T12:48:29.775Z,4.30
2022-12-24T12:51:04.902Z,4.53
2022-12-24T12:53:46.046Z,4.70
2022-12-24T12:56:31.820Z,4.30
2022-12-24T12:59:04.575Z,4.20
2022-12-24T13:01:43.195Z,4.47
2022-12-24T13:04:48.280Z,4.23
2022-12-24T13:07:55.243Z,4.97
2022-12-24T13:10:46.463Z,4.80
2022-12-24T13:13:33.482Z,4.73
2022-12-24T13:16:31.124Z,4.20
2022-12-24T13:19:09.479Z,4.60
2022-12-24T13:21:37.379Z,5.03
2022-12-24T13:24:17.682Z,5.07
2022-12-24T13:27:01.653Z,5.17
2022-12-24T13:29:42.308Z,6.30
2022-12-24T13:32:39.571Z,5.00
2022-12-24T13:35:36.989Z,5.60
2022-12-24T13:38:43.666Z,6.23
2022-12-24T13:41:53.942Z,5.20
2022-12-24T13:44:33.146Z,5.57
2022-12-24T13:47:30.162Z,5.83
2022-12-24T13:50:15.116Z,5.23
2022-12-24T13:52:52.490Z,5.77
2022-12-24T13:55:20.676Z,5.90
2022-12-24T13:57:58.509Z,5.33
2022-12-24T14:00:44.077Z,5.13
2022-12-24T14:03:27.924Z,5.33
2022-12-24T14:05:59.513Z,4.53
2022-12-24T14:08:34.577Z,5.00
2022-12-24T14:11:10.326Z,5.17
2022-12-24T14:13:56.755Z,5.40
2022-12-24T14:16:29.086Z,5.50
2022-12-24T14:19:02.294Z,4.70
2022-12-24T14:21:35.459Z,5.90
2022-12-24T14:24:06.362Z,6.33
2022-12-24T14:26:37.377Z,5.30
2022-12-24T14:29:08.784Z,5.90
2022-12-24T14:31:38.001Z,6.33
2022-12-24T14:34:13.606Z,6.23
2022-12-24T14:36:45.525Z,6.50
2022-12-24T14:39:24.066Z,4.70
2022-12-24T14:42:01.055Z,4.73
2022-12-24T14:44:37.414Z,4.20
2022-12-24T14:47:20.897Z,4.27
2022-12-24T14:50:02.107Z,4.57
2022-12-24T14:53:04.619Z,4.13
2022-12-24T14:55:32.947Z,4.93
2022-12-24T14:58:23.877Z,5.03
2022-12-24T15:00:52.333Z,4.40
2022-12-24T15:03:24.225Z,4.73
2022-12-24T15:05:55.217Z,5.83
2022-12-24T15:08:29.940Z,7.30
2022-12-24T15:11:03.016Z,5.07
2022-12-24T15:13:36.957Z,5.00
2022-12-24T15:16:08.883Z,5.17
2022-12-24T15:18:43.149Z,4.83
2022-12-24T15:21:19.581Z,6.30
2022-12-24T15:23:53.022Z,5.73
2022-12-24T15:26:27.114Z,6.37
2022-12-24T15:29:02.386Z,9.90
2022-12-24T15:31:32.162Z,6.53
2022-12-24T15:34:01.658Z,7.17
2022-12-24T15:36:32.510Z,7.10
2022-12-24T15:39:03.323Z,7.23
2022-12-24T15:41:38.234Z,8.20
2022-12-24T15:44:06.375Z,7.13
2022-12-24T15:46:34.680Z,8.27
2022-12-24T15:49:04.600Z,11.90
2022-12-24T15:51:38.437Z,9.53
2022-12-24T15:54:14.019Z,9.10
2022-12-24T15:56:44.448Z,8.67
2022-12-24T15:59:28.740Z,7.87
2022-12-24T16:01:56.684Z,9.40
2022-12-24T16:04:27.465Z,8.87
2022-12-24T16:06:57.556Z,9.73
2022-12-24T16:09:33.016Z,10.23
2022-12-24T16:12:03.459Z,10.40
2022-12-24T16:14:33.194Z,10.63
2022-12-24T16:17:01.050Z,9.47
2022-12-24T16:19:39.503Z,9.77
2022-12-24T16:22:21.699Z,10.67
2022-12-24T16:24:49.512Z,9.00
2022-12-24T16:27:17.253Z,9.20
2022-12-24T16:29:46.817Z,11.63
2022-12-24T16:32:26.950Z,15.83
2022-12-24T16:34:56.056Z,10.17
2022-12-24T16:37:23.912Z,13.63
2022-12-24T16:39:52.893Z,10.90
2022-12-24T16:42:38.734Z,9.43
2022-12-24T16:45:07.910Z,11.03
2022-12-24T16:47:42.426Z,10.90
2022-12-24T16:50:16.944Z,10.53
2022-12-24T16:52:44.822Z,9.93
2022-12-24T16:55:14.554Z,10.70
2022-12-24T16:57:43.610Z,11.53
2022-12-24T17:00:16.624Z,11.63
2022-12-24T17:02:44.538Z,11.90
2022-12-24T17:05:13.787Z,10.70
2022-12-24T17:07:44.061Z,10.17
2022-12-24T17:10:12.794Z,11.13
2022-12-24T17:12:40.600Z,11.77
2022-12-24T17:15:09.293Z,10.60
2022-12-24T17:17:37.419Z,11.87
2022-12-24T17:20:06.622Z,11.37
2022-12-24T17:22:36.748Z,13.27
2022-12-24T17:25:05.116Z,12.10
2022-12-24T17:27:32.945Z,11.60
2022-12-24T17:30:00.686Z,11.80
2022-12-24T17:32:28.481Z,12.10
2022-12-24T17:34:56.240Z,16.13
2022-12-24T17:37:23.946Z,11.80
2022-12-24T17:39:53.115Z,11.27
2022-12-24T17:42:20.892Z,11.07
2022-12-24T17:44:48.630Z,11.70
2022-12-24T17:47:16.487Z,11.70
2022-12-24T17:49:44.201Z,12.50
2022-12-24T17:52:12.229Z,14.27
2022-12-24T17:54:39.994Z,13.13
2022-12-24T17:57:09.080Z,13.67
2022-12-24T17:59:36.813Z,14.10
2022-12-24T18:02:04.638Z,14.03
2022-12-24T18:04:32.457Z,13.33
2022-12-24T18:07:02.691Z,14.03
2022-12-24T18:09:31.126Z,13.40
2022-12-24T18:11:58.913Z,13.33
2022-12-24T18:14:28.149Z,14.17
2022-12-24T18:16:55.993Z,13.70
2022-12-24T18:19:23.820Z,13.23
2022-12-24T18:21:51.586Z,13.40
2022-12-24T18:24:19.636Z,13.57
2022-12-24T18:26:48.396Z,13.07
2022-12-24T18:29:17.198Z,12.53
2022-12-24T18:31:46.315Z,14.63
2022-12-24T18:34:17.017Z,14.33
2022-12-24T18:36:48.263Z,13.73
2022-12-24T18:39:19.059Z,12.77
2022-12-24T18:41:46.835Z,13.90
2022-12-24T18:44:18.078Z,14.00
2022-12-24T18:46:50.003Z,14.33
2022-12-24T18:49:17.782Z,13.10
2022-12-24T18:51:45.525Z,13.60
2022-12-24T18:54:13.226Z,14.57
2022-12-24T18:56:41.022Z,13.63
2022-12-24T18:59:08.738Z,13.77
2022-12-24T19:01:36.669Z,15.90
2022-12-24T19:04:06.085Z,13.60
2022-12-24T19:06:33.869Z,13.80
2022-12-24T19:09:02.105Z,14.23
2022-12-24T19:11:31.831Z,13.20
2022-12-24T19:14:00.197Z,12.07
2022-12-24T19:16:29.300Z,13.13
2022-12-24T19:18:57.509Z,14.93
2022-12-24T19:21:27.152Z,13.37
2022-12-24T19:23:54.873Z,13.57
2022-12-24T19:26:23.050Z,12.73
2022-12-24T19:28:51.030Z,14.60
2022-12-24T19:31:21.419Z,14.50
2022-12-24T19:33:50.876Z,16.03
2022-12-24T19:36:21.023Z,16.17
2022-12-24T19:38:50.104Z,14.73
2022-12-24T19:41:19.916Z,13.83
2022-12-24T19:43:50.128Z,14.87
2022-12-24T19:46:20.745Z,15.17
2022-12-24T19:48:51.164Z,15.63
2022-12-24T19:51:19.591Z,15.20
2022-12-24T19:53:47.864Z,15.27
2022-12-24T19:56:18.125Z,14.70
2022-12-24T19:58:46.665Z,16.53
2022-12-24T20:01:16.612Z,17.37
2022-12-24T20:03:44.940Z,16.63
2022-12-24T20:06:13.844Z,18.30
2022-12-24T20:08:41.980Z,17.27
2022-12-24T20:11:11.537Z,18.43
2022-12-24T20:13:41.716Z,16.03
2022-12-24T20:16:11.973Z,15.90
2022-12-24T20:18:40.120Z,15.77
2022-12-24T20:21:10.389Z,16.83
2022-12-24T20:23:39.471Z,16.90
2022-12-24T20:26:10.204Z,16.03
2022-12-24T20:28:38.735Z,16.37
2022-12-24T20:31:12.747Z,15.17
2022-12-24T20:33:40.765Z,15.93
2022-12-24T20:36:09.428Z,16.93
2022-12-24T20:38:37.614Z,15.90
2022-12-24T20:41:06.517Z,16.53
2022-12-24T20:43:39.713Z,15.17
2022-12-24T20:46:12.248Z,15.93
2022-12-24T20:48:41.577Z,15.00
2022-12-24T20:51:11.343Z,14.53
2022-12-24T20:53:41.491Z,14.63
2022-12-24T20:56:09.524Z,16.27
2022-12-24T20:58:37.261Z,17.43
2022-12-24T21:01:09.738Z,16.27
2022-12-24T21:03:38.938Z,16.43
2022-12-24T21:06:07.244Z,15.90
2022-12-24T21:08:35.173Z,16.20
2022-12-24T21:11:20.233Z,15.97
2022-12-24T21:13:48.260Z,16.27
2022-12-24T21:16:16.297Z,16.80
2022-12-24T21:18:45.403Z,15.33
2022-12-24T21:21:13.146Z,16.03
2022-12-24T21:23:40.880Z,17.63
2022-12-24T21:26:08.624Z,14.73
2022-12-24T21:28:36.372Z,14.37
2022-12-24T21:31:09.600Z,15.13
2022-12-24T21:33:38.480Z,15.37
2022-12-24T21:36:08.683Z,15.17
2022-12-24T21:38:36.708Z,14.93
2022-12-24T21:41:06.264Z,15.40
2022-12-24T21:43:35.582Z,14.07
2022-12-24T21:46:07.574Z,15.03
2022-12-24T21:48:53.076Z,15.10
2022-12-24T21:51:23.186Z,15.53
2022-12-24T21:54:08.534Z,13.70
2022-12-24T21:56:56.548Z,13.67
2022-12-24T21:59:26.619Z,13.90
2022-12-24T22:01:55.464Z,13.70
2022-12-24T22:04:23.725Z,12.87
2022-12-24T22:07:10.289Z,14.40
2022-12-24T22:09:56.153Z,14.40
2022-12-24T22:12:24.311Z,14.40
2022-12-24T22:14:52.453Z,14.23
2022-12-24T22:17:25.070Z,13.13
2022-12-24T22:19:53.400Z,12.03
2022-12-24T22:22:22.591Z,12.23
2022-12-24T22:24:50.458Z,13.30
2022-12-24T22:27:18.183Z,13.27
2022-12-24T22:29:45.913Z,12.93
2022-12-24T22:32:13.680Z,13.13
2022-12-24T22:34:41.429Z,13.73
2022-12-24T22:37:09.193Z,12.47
2022-12-24T22:39:39.099Z,14.13
2022-12-24T22:42:06.955Z,13.40
2022-12-24T22:44:34.706Z,14.07
2022-12-24T22:47:02.449Z,14.17
2022-12-24T22:49:30.173Z,13.53
2022-12-24T22:51:58.689Z,14.40
2022-12-24T22:54:26.917Z,12.67
2022-12-24T22:56:56.007Z,12.57
2022-12-24T22:59:23.872Z,14.20
2022-12-24T23:01:52.588Z,14.20
2022-12-24T23:04:20.853Z,14.07
2022-12-24T23:06:49.193Z,14.37
2022-12-24T23:09:17.627Z,14.83
2022-12-24T23:11:46.097Z,13.70
2022-12-24T23:14:36.317Z,14.20
2022-12-24T23:17:04.620Z,14.07
2022-12-24T23:19:33.567Z,13.47
2022-12-24T23:22:02.032Z,14.00
2022-12-24T23:24:30.427Z,14.17
2022-12-24T23:27:01.475Z,13.97
2022-12-24T23:29:31.052Z,14.23
2022-12-24T23:31:59.168Z,14.20
2022-12-24T23:34:27.097Z,14.47
2022-12-24T23:36:54.859Z,14.63
2022-12-24T23:39:22.731Z,14.27
2022-12-24T23:41:50.456Z,15.00
2022-12-24T23:44:18.186Z,14.20
2022-12-24T23:46:47.321Z,14.30
2022-12-24T23:49:15.737Z,13.93
2022-12-24T23:51:43.604Z,14.03
2022-12-24T23:54:11.369Z,15.73
2022-12-24T23:56:39.200Z,14.90
2022-12-24T23:59:06.930Z,14.90
